Time;durP1;ratioP1;P1;durP2;ratioP2;P2;SDS_P1;SDS_P2;PMS_P1;PMS_P2;Temp;Humidity;BMP_temperature;BMP_pressure;BME280_temperature;BME280_humidity;BME280_pressure;Samples;Min_cycle;Max_cycle;Signal;HPM_P1;HPM_P2
2021/04/27 00:00:18;;;;;;;30.40;13.10;;;;;;;5.32;51.82;100349.75;5058238;27;101443;-75
2021/04/27 00:02:44;;;;;;;31.03;13.47;;;;;;;5.28;51.95;100353.28;5058214;27;96735;-75
2021/04/27 00:05:12;;;;;;;31.50;12.90;;;;;;;5.31;52.20;100357.59;5052598;27;97067;-76
2021/04/27 00:07:38;;;;;;;28.80;12.67;;;;;;;5.27;51.83;100343.75;5057148;27;101290;-75
2021/04/27 00:10:06;;;;;;;27.13;12.20;;;;;;;5.26;51.66;100355.03;5054583;27;100919;-76
2021/04/27 00:12:32;;;;;;;26.10;11.73;;;;;;;5.24;51.83;100348.16;5055428;27;96783;-75
2021/04/27 00:14:58;;;;;;;26.83;12.80;;;;;;;5.20;51.49;100347.28;5038498;27;96861;-75
2021/04/27 00:17:24;;;;;;;32.37;13.10;;;;;;;5.17;52.05;100349.94;5037973;27;101119;-74
2021/04/27 00:19:49;;;;;;;27.90;11.73;;;;;;;5.10;52.16;100343.94;5036941;27;101628;-74
2021/04/27 00:22:15;;;;;;;32.03;12.63;;;;;;;5.07;52.73;100343.13;5037218;27;96755;-75
2021/04/27 00:24:40;;;;;;;30.47;12.27;;;;;;;5.09;52.36;100344.84;5055276;27;97288;-75
2021/04/27 00:27:06;;;;;;;25.20;11.60;;;;;;;5.12;52.31;100338.72;5054332;27;98486;-75
2021/04/27 00:29:32;;;;;;;37.23;12.57;;;;;;;5.09;52.59;100339.63;5036298;27;99551;-74
2021/04/27 00:31:57;;;;;;;29.07;11.73;;;;;;;5.07;52.94;100338.78;5021212;27;97020;-74
2021/04/27 00:34:23;;;;;;;30.53;12.33;;;;;;;5.06;52.94;100331.88;5038047;27;96947;-74
2021/04/27 00:36:49;;;;;;;30.97;12.17;;;;;;;4.97;52.92;100331.94;5049264;27;99140;-74
2021/04/27 00:39:15;;;;;;;30.63;12.13;;;;;;;4.91;52.61;100332.00;5020598;27;101566;-74
2021/04/27 00:41:40;;;;;;;38.20;13.60;;;;;;;4.90;53.24;100328.56;5038751;27;96994;-74
2021/04/27 00:44:07;;;;;;;33.87;12.13;;;;;;;4.84;53.21;100327.75;5049776;27;97053;-75
2021/04/27 00:46:33;;;;;;;28.53;11.90;;;;;;;4.79;53.47;100321.75;5063622;27;98025;-75
2021/04/27 00:49:00;;;;;;;23.97;11.87;;;;;;;4.74;53.29;100325.25;5056247;27;100925;-75
2021/04/27 00:51:25;;;;;;;31.50;12.33;;;;;;;4.74;53.21;100326.97;5040280;27;96710;-77
2021/04/27 00:53:51;;;;;;;27.20;13.03;;;;;;;4.70;53.54;100320.09;5093228;27;96854;-75
2021/04/27 00:56:19;;;;;;;28.63;12.27;;;;;;;4.70;53.66;100320.94;5040666;27;101660;-75
2021/04/27 00:58:45;;;;;;;26.20;12.63;;;;;;;4.67;53.61;100322.72;5056410;27;101188;-75
2021/04/27 01:01:12;;;;;;;32.10;13.47;;;;;;;4.59;53.73;100319.34;5057336;27;96676;-75
2021/04/27 01:03:39;;;;;;;28.37;12.67;;;;;;;4.57;53.80;100316.75;5093394;27;96919;-75
2021/04/27 01:06:04;;;;;;;32.70;13.43;;;;;;;4.55;53.57;100308.09;5091427;27;100536;-75
2021/04/27 01:08:49;;;;;;;32.63;13.17;;;;;;;4.59;53.81;100316.72;5045643;27;100860;-76
2021/04/27 01:11:33;;;;;;;33.13;13.63;;;;;;;4.52;54.08;100316.78;5054730;27;97212;-76
2021/04/27 01:14:27;;;;;;;37.67;13.90;;;;;;;4.43;54.04;100308.22;5074853;27;97549;-75
2021/04/27 01:16:59;;;;;;;34.47;13.10;;;;;;;4.46;54.31;100309.06;5081207;27;98633;-76
2021/04/27 01:19:41;;;;;;;35.40;13.97;;;;;;;4.43;54.18;100314.28;5037862;27;102350;-76
2021/04/27 01:22:10;;;;;;;36.75;15.80;;;;;;;4.41;54.28;100321.22;5037559;27;96803;-76
2021/04/27 01:24:48;;;;;;;36.83;13.13;;;;;;;4.38;54.10;100320.41;5039001;27;97147;-76
2021/04/27 01:27:14;;;;;;;32.27;14.70;;;;;;;4.35;54.58;100316.09;5038643;27;97325;-76
2021/04/27 01:29:40;;;;;;;36.70;15.07;;;;;;;4.34;54.57;100316.13;5035403;27;101744;-76
2021/04/27 01:32:06;;;;;;;39.97;16.73;;;;;;;4.28;54.88;100312.69;5053851;27;96999;-76
2021/04/27 01:34:35;;;;;;;41.07;16.70;;;;;;;4.26;54.75;100310.97;5056696;27;96720;-76
2021/04/27 01:37:04;;;;;;;38.28;16.08;;;;;;;4.21;54.96;100310.13;5073850;27;99279;-75
2021/04/27 01:39:31;;;;;;;44.37;16.93;;;;;;;4.14;55.12;100317.13;5055716;27;99201;-78
2021/04/27 01:42:01;;;;;;;35.47;17.50;;;;;;;4.15;55.05;100324.03;5074750;27;97447;-75
2021/04/27 01:44:28;;;;;;;39.37;16.97;;;;;;;4.13;54.68;100320.63;5037265;27;96884;-80
2021/04/27 01:46:55;;;;;;;43.17;16.60;;;;;;;4.12;54.57;100321.47;5037542;27;98680;-75
2021/04/27 01:49:20;;;;;;;41.90;17.23;;;;;;;4.06;55.12;100322.38;5066433;27;97877;-76
2021/04/27 01:52:24;;;;;;;41.70;16.77;;;;;;;3.99;55.53;100319.84;4987753;28;97179;-76
2021/04/27 01:54:54;;;;;;;47.00;17.80;;;;;;;3.97;55.56;100309.47;4956382;28;97337;-76
2021/04/27 01:57:20;;;;;;;40.10;17.57;;;;;;;3.97;55.79;100303.41;5013749;27;102043;-76
2021/04/27 01:59:46;;;;;;;43.90;17.97;;;;;;;4.00;55.71;100317.22;5039289;27;101672;-76
2021/04/27 02:02:18;;;;;;;;;;;;;;;3.92;56.12;100300.81;5057517;27;97000;-76
2021/04/27 02:04:56;;;;;;;49.07;18.47;;;;;;;3.90;56.04;100304.31;5044023;27;96968;-76
2021/04/27 02:07:48;;;;;;;43.77;17.13;;;;;;;3.86;56.53;100306.94;5060756;27;97589;-76
2021/04/27 02:10:14;;;;;;;43.07;17.83;;;;;;;3.86;56.33;100306.06;5037527;27;100798;-77
2021/04/27 02:12:44;;;;;;;48.23;18.20;;;;;;;3.86;56.92;100300.88;5041160;27;97218;-76
2021/04/27 02:15:10;;;;;;;37.17;16.17;;;;;;;3.80;57.00;100306.13;5023082;27;97200;-76
2021/04/27 02:17:46;;;;;;;44.83;19.83;;;;;;;3.81;56.70;100307.81;5055920;27;97436;-76
2021/04/27 02:20:13;;;;;;;48.80;19.13;;;;;;;3.78;57.23;100308.75;5057259;27;101252;-76
2021/04/27 02:23:00;;;;;;;45.20;19.20;;;;;;;3.72;56.73;100298.38;5060651;27;97105;-75
2021/04/27 02:26:04;;;;;;;45.30;18.67;;;;;;;3.72;57.08;100300.97;5030711;27;97439;-75
2021/04/27 02:28:41;;;;;;;42.50;18.93;;;;;;;3.73;57.41;100302.72;5024119;27;100083;-76
2021/04/27 02:31:07;;;;;;;47.77;18.07;;;;;;;3.73;57.30;100296.66;5042582;27;101287;-75
2021/04/27 02:33:34;;;;;;;40.33;17.97;;;;;;;3.73;57.02;100302.72;5054516;27;97204;-75
2021/04/27 02:36:00;;;;;;;56.23;18.70;;;;;;;3.72;57.24;100300.09;5059919;27;96990;-75
2021/04/27 02:38:42;;;;;;;49.53;16.83;;;;;;;3.69;57.11;100300.13;5042808;27;99870;-75
2021/04/27 02:41:08;;;;;;;39.27;16.37;;;;;;;3.63;57.13;100296.69;5037849;27;101963;-75
2021/04/27 02:43:38;;;;;;;45.53;17.70;;;;;;;3.61;57.32;100298.44;5022244;27;96661;-75
2021/04/27 02:46:04;;;;;;;41.87;16.97;;;;;;;3.53;57.54;100292.44;5040100;27;97146;-75
2021/04/27 02:48:40;;;;;;;44.33;17.00;;;;;;;3.48;57.30;100299.38;5039680;27;101433;-75
2021/04/27 02:51:17;;;;;;;41.97;18.07;;;;;;;3.39;57.88;100296.84;5051454;27;101839;-75
2021/04/27 02:54:08;;;;;;;46.80;17.97;;;;;;;3.41;57.66;100295.09;5032943;27;97568;-75
2021/04/27 02:56:35;;;;;;;41.27;16.90;;;;;;;3.47;57.61;100304.59;5036663;27;96875;-75
2021/04/27 02:59:02;;;;;;;49.50;19.13;;;;;;;3.48;57.35;100296.78;5050391;27;101086;-75
2021/04/27 03:01:28;;;;;;;47.33;17.97;;;;;;;3.46;57.35;100292.47;5042075;27;98009;-75
2021/04/27 03:03:57;;;;;;;37.37;17.63;;;;;;;3.49;57.56;100301.13;5031847;27;96696;-75
2021/04/27 03:06:30;;;;;;;45.73;19.13;;;;;;;3.42;57.61;100290.78;5024151;27;97066;-77
2021/04/27 03:09:05;;;;;;;43.20;18.17;;;;;;;3.43;57.31;100303.72;5040511;27;101304;-75
2021/04/27 03:11:31;;;;;;;48.17;18.87;;;;;;;3.40;57.55;100289.06;5053821;27;99992;-78
2021/04/27 03:13:56;;;;;;;43.97;18.50;;;;;;;3.39;57.84;100302.88;5044312;27;96932;-75
2021/04/27 03:16:23;;;;;;;43.33;19.53;;;;;;;3.36;57.70;100300.31;5055781;27;96794;-76
2021/04/27 03:18:49;;;;;;;40.57;19.43;;;;;;;3.31;58.52;100296.00;5020503;27;101594;-76
2021/04/27 03:21:15;;;;;;;44.33;18.77;;;;;;;3.35;57.92;100295.13;5038838;27;98650;-75
2021/04/27 03:23:41;;;;;;;48.47;18.80;;;;;;;3.28;58.01;100291.69;5037694;27;97171;-76
2021/04/27 03:26:07;;;;;;;48.90;18.83;;;;;;;3.27;57.87;100295.16;5022347;27;97081;-76
2021/04/27 03:28:59;;;;;;;52.83;20.27;;;;;;;3.27;57.58;100291.72;5027759;27;98412;-75
2021/04/27 03:31:25;;;;;;;55.23;20.73;;;;;;;3.22;57.97;100291.72;5038856;27;100959;-76
2021/04/27 03:33:51;;;;;;;57.70;21.47;;;;;;;3.12;58.87;100292.66;5029846;27;97519;-75
2021/04/27 03:36:17;;;;;;;49.23;20.47;;;;;;;3.12;58.11;100290.06;5056337;27;96814;-76
2021/04/27 03:38:49;;;;;;;49.33;21.67;;;;;;;3.08;58.79;100304.75;5037895;27;98221;-76
2021/04/27 03:41:15;;;;;;;44.60;21.23;;;;;;;3.12;59.07;100309.06;5021576;27;101099;-77
2021/04/27 03:43:41;;;;;;;52.93;22.27;;;;;;;3.17;58.23;100306.44;5073067;27;98370;-76
2021/04/27 03:46:06;;;;;;;52.00;22.40;;;;;;;3.18;58.32;100308.19;5047603;27;97331;-75
2021/04/27 03:48:32;;;;;;;55.23;22.57;;;;;;;3.18;58.36;100308.19;5054633;27;101068;-78
2021/04/27 03:50:59;;;;;;;60.43;22.20;;;;;;;3.22;58.24;100303.84;5038118;27;100996;-76
2021/04/27 03:53:30;;;;;;;51.10;21.40;;;;;;;3.25;58.52;100311.59;5036898;27;98386;-75
2021/04/27 03:55:56;;;;;;;54.87;22.40;;;;;;;3.26;58.70;100311.63;5046551;27;96992;-75
2021/04/27 03:58:22;;;;;;;57.37;22.10;;;;;;;3.22;58.78;100315.06;5039402;27;101130;-75
2021/04/27 04:00:48;;;;;;;60.40;23.50;;;;;;;3.20;58.44;100314.25;5041849;27;101110;-75
2021/04/27 04:03:21;;;;;;;52.13;23.10;;;;;;;3.17;58.64;100306.44;5060682;27;96627;-75
2021/04/27 04:05:48;;;;;;;54.97;25.87;;;;;;;3.17;58.89;100317.72;5058675;27;97317;-77
2021/04/27 04:08:32;;;;;;;59.13;23.83;;;;;;;3.37;58.87;100307.25;5067777;27;97143;-75
2021/04/27 04:10:58;;;;;;;56.63;25.80;;;;;;;3.45;58.34;100316.72;5071398;27;99022;-75
2021/04/27 04:13:26;;;;;;;52.50;23.40;;;;;;;3.40;59.28;100307.22;5075160;27;96679;-78
2021/04/27 04:15:52;;;;;;;51.87;23.40;;;;;;;3.52;58.78;100308.91;5050205;27;97303;-76
2021/04/27 04:18:17;;;;;;;48.63;21.63;;;;;;;3.71;58.94;100311.38;5036741;27;101327;-76
2021/04/27 04:20:43;;;;;;;45.77;22.53;;;;;;;3.81;58.03;100308.72;5057943;27;101337;-76
2021/04/27 04:23:36;;;;;;;50.03;22.85;;;;;;;3.97;57.57;100309.47;5033709;27;96955;-76
2021/04/27 04:26:02;;;;;;;41.73;21.20;;;;;;;4.24;57.17;100315.31;5041965;27;96918;-75
2021/04/27 04:28:30;;;;;;;47.17;21.97;;;;;;;4.42;56.49;100315.19;5040200;27;101086;-76
2021/04/27 04:30:56;;;;;;;42.77;19.80;;;;;;;4.60;55.93;100316.75;5041469;27;101450;-75
2021/04/27 04:33:40;;;;;;;47.27;23.07;;;;;;;4.88;55.10;100308.63;5074597;27;96754;-76
2021/04/27 04:36:35;;;;;;;46.97;20.37;;;;;;;5.27;54.91;100317.72;4976529;27;97147;-76
2021/04/27 04:39:27;;;;;;;44.75;23.00;;;;;;;5.64;54.17;100318.13;5011193;27;98540;-76
2021/04/27 04:42:11;;;;;;;49.07;21.57;;;;;;;5.99;53.46;100324.59;5040544;27;97062;-74
2021/04/27 04:44:55;;;;;;;47.53;20.17;;;;;;;6.39;52.69;100318.72;5058200;27;97009;-73
2021/04/27 04:47:54;;;;;;;41.77;20.33;;;;;;;7.00;50.50;100322.81;5046216;27;97237;-74
2021/04/27 04:50:38;;;;;;;47.30;20.17;;;;;;;7.54;49.51;100328.72;5039759;27;97644;-75
2021/04/27 04:53:22;;;;;;;46.07;20.43;;;;;;;8.30;48.12;100326.09;5057340;27;97344;-75
2021/04/27 04:55:51;;;;;;;37.13;18.67;;;;;;;8.82;46.03;100319.56;5041967;27;97344;-75
2021/04/27 04:58:37;;;;;;;53.05;21.58;;;;;;;10.16;44.32;100316.47;5032309;27;97104;-75
2021/04/27 05:01:05;;;;;;;42.65;19.25;;;;;;;13.02;39.44;100317.88;5056658;27;101432;-75
2021/04/27 05:03:50;;;;;;;36.33;17.85;;;;;;;15.71;34.46;100313.41;5074751;27;99277;-75
2021/04/27 05:06:58;;;;;;;42.35;19.73;;;;;;;17.67;31.88;100313.31;5060101;27;97411;-76
2021/04/27 05:09:43;;;;;;;38.05;20.58;;;;;;;18.89;30.17;100307.03;5045834;27;96764;-74
2021/04/27 05:12:16;;;;;;;27.83;13.90;;;;;;;19.23;28.72;100311.72;5061841;27;101515;-76
2021/04/27 05:15:01;;;;;;;28.35;15.30;;;;;;;19.33;27.95;100316.41;5073997;27;99879;-74
2021/04/27 05:17:30;;;;;;;29.15;15.57;;;;;;;20.10;27.53;100315.25;5067942;27;97373;-74
2021/04/27 05:19:58;;;;;;;33.60;15.65;;;;;;;20.95;26.55;100316.91;5064048;27;97007;-74
2021/04/27 05:22:29;;;;;;;26.60;14.48;;;;;;;21.82;25.99;100314.50;5055825;27;99431;-73
2021/04/27 05:24:55;;;;;;;23.80;14.07;;;;;;;22.30;25.16;100320.34;5055124;27;101413;-76
2021/04/27 05:27:24;;;;;;;26.85;14.30;;;;;;;23.05;24.63;100315.84;5046390;27;97683;-76
2021/04/27 05:29:49;;;;;;;26.25;14.35;;;;;;;23.54;24.10;100319.56;5042875;27;96913;-76
2021/04/27 05:32:16;;;;;;;26.55;13.93;;;;;;;23.93;23.12;100325.06;5034130;27;100228;-76
2021/04/27 05:34:41;;;;;;;29.98;15.00;;;;;;;24.62;22.68;100326.84;5063188;27;98091;-76
2021/04/27 05:37:07;;;;;;;27.30;14.40;;;;;;;24.66;22.21;100319.34;5066030;27;98080;-76
2021/04/27 05:39:34;;;;;;;22.48;13.45;;;;;;;24.76;22.22;100315.66;5053477;27;97021;-76
2021/04/27 05:42:00;;;;;;;22.92;13.55;;;;;;;25.31;21.95;100314.97;5053061;27;101340;-76
2021/04/27 05:44:25;;;;;;;28.92;14.57;;;;;;;26.05;21.27;100310.50;5033927;27;101064;-74
2021/04/27 05:46:51;;;;;;;22.63;13.35;;;;;;;25.84;21.05;100310.78;5036781;27;97254;-73
2021/04/27 05:49:17;;;;;;;35.22;15.50;;;;;;;26.49;20.90;100313.25;5045150;27;96973;-73
2021/04/27 05:51:42;;;;;;;23.52;13.80;;;;;;;26.58;20.64;100313.19;5055690;27;97685;-73
2021/04/27 05:54:08;;;;;;;21.00;12.90;;;;;;;27.61;19.93;100321.44;5083123;27;98103;-74
2021/04/27 05:56:34;;;;;;;23.63;11.75;;;;;;;27.63;19.36;100300.53;5038020;27;97459;-74
2021/04/27 05:59:00;;;;;;;24.67;12.70;;;;;;;27.48;19.72;100305.69;5081746;27;96847;-75
2021/04/27 06:01:26;;;;;;;31.23;14.07;;;;;;;27.56;19.65;100314.84;5036184;27;101015;-75
2021/04/27 06:03:51;;;;;;;23.13;13.45;;;;;;;27.75;19.39;100304.63;5048198;27;98383;-75
2021/04/27 06:06:17;;;;;;;21.92;12.43;;;;;;;28.05;19.05;100318.56;5037767;27;97356;-74
2021/04/27 06:08:43;;;;;;;24.55;11.88;;;;;;;28.19;18.67;100319.78;5048703;27;96785;-74
2021/04/27 06:11:08;;;;;;;18.20;9.85;;;;;;;28.87;18.20;100307.81;5074841;27;101030;-75
2021/04/27 06:13:34;;;;;;;16.73;9.93;;;;;;;29.13;17.90;100318.44;5057403;27;98717;-74
2021/04/27 06:16:00;;;;;;;18.80;10.13;;;;;;;29.17;17.96;100317.06;5037441;27;96755;-75
2021/04/27 06:18:26;;;;;;;17.65;10.57;;;;;;;29.25;17.70;100319.75;5054178;27;97244;-75
2021/04/27 06:20:51;;;;;;;16.17;10.43;;;;;;;29.55;17.43;100323.53;5049728;27;100945;-75
2021/04/27 06:23:17;;;;;;;16.85;10.95;;;;;;;29.92;16.98;100316.59;5030368;27;101922;-75
2021/04/27 06:25:43;;;;;;;20.63;16.17;;;;;;;30.50;17.09;100327.06;5065293;27;97101;-75
2021/04/27 06:28:10;;;;;;;15.52;11.18;;;;;;;30.09;17.02;100324.63;5037817;27;96983;-75
2021/04/27 06:30:37;;;;;;;19.58;10.93;;;;;;;30.10;17.24;100326.31;5020342;27;101290;-75
2021/04/27 06:33:03;;;;;;;18.38;8.93;;;;;;;29.83;16.49;100327.66;5063307;27;97754;-75
2021/04/27 06:35:28;;;;;;;12.75;8.70;;;;;;;30.16;17.04;100320.16;5037111;27;97487;-75
2021/04/27 06:37:54;;;;;;;13.32;8.60;;;;;;;30.48;16.58;100321.81;5034879;27;97710;-75
2021/04/27 06:40:20;;;;;;;14.77;9.05;;;;;;;29.79;16.55;100324.47;5021044;27;101261;-73
2021/04/27 06:42:48;;;;;;;16.10;9.25;;;;;;;30.17;16.70;100319.16;5045738;27;100779;-75
2021/04/27 06:45:14;;;;;;;12.75;9.02;;;;;;;29.23;17.28;100321.75;5034403;27;97617;-74
2021/04/27 06:47:40;;;;;;;15.25;8.85;;;;;;;30.23;16.86;100316.59;5039181;27;100054;-76
2021/04/27 06:50:06;;;;;;;13.13;8.48;;;;;;;31.38;16.08;100321.00;5041402;27;101099;-76
2021/04/27 06:52:32;;;;;;;14.50;8.57;;;;;;;31.71;15.51;100321.44;5047707;27;97977;-76
2021/04/27 06:54:58;;;;;;;15.82;8.13;;;;;;;32.10;15.69;100319.41;5050476;27;96737;-76
2021/04/27 06:57:24;;;;;;;15.05;8.20;;;;;;;32.15;15.64;100315.06;5062142;27;97325;-76
2021/04/27 06:59:50;;;;;;;11.73;6.80;;;;;;;31.71;15.29;100324.16;5063553;27;98503;-76
2021/04/27 07:02:16;;;;;;;13.13;8.30;;;;;;;31.00;15.69;100326.47;5067689;27;97881;-76
2021/04/27 07:04:42;;;;;;;9.85;6.43;;;;;;;30.93;15.96;100317.41;5035623;27;96853;-76
2021/04/27 07:07:08;;;;;;;10.32;7.30;;;;;;;31.84;15.50;100322.63;5033239;27;97155;-76
2021/04/27 07:09:34;;;;;;;16.13;7.38;;;;;;;31.94;14.68;100312.31;5057629;27;99819;-76
2021/04/27 07:12:00;;;;;;;12.90;6.40;;;;;;;31.41;15.27;100312.47;5094538;27;97825;-75
2021/04/27 07:14:26;;;;;;;13.43;7.30;;;;;;;31.77;15.18;100320.66;5039775;27;96811;-76
2021/04/27 07:16:53;;;;;;;11.68;6.20;;;;;;;31.88;14.91;100326.63;5042658;27;97095;-77
2021/04/27 07:19:20;;;;;;;11.43;10.32;;;;;;;31.76;14.62;100312.72;5050059;27;98021;-76
2021/04/27 07:21:46;;;;;;;11.30;6.78;;;;;;;32.66;14.65;100314.09;5074099;27;97530;-75
2021/04/27 07:24:12;;;;;;;10.73;6.43;;;;;;;32.05;14.83;100310.97;5051798;27;97996;-76
2021/04/27 07:26:41;;;;;;;11.95;6.30;;;;;;;32.22;14.62;100305.09;5048141;27;96849;-78
2021/04/27 07:29:08;;;;;;;9.70;6.20;;;;;;;32.22;15.05;100318.69;5052413;27;97640;-77
2021/04/27 07:31:34;;;;;;;25.40;8.23;;;;;;;32.05;15.31;100317.25;5061560;27;98361;-77
2021/04/27 07:33:59;;;;;;;9.88;5.85;;;;;;;32.52;14.95;100321.28;5060314;27;97330;-77
2021/04/27 07:36:25;;;;;;;12.02;6.50;;;;;;;32.43;14.66;100312.41;5045893;27;96951;-75
2021/04/27 07:38:51;;;;;;;8.95;5.40;;;;;;;32.73;14.66;100327.75;5047196;27;99559;-75
2021/04/27 07:41:17;;;;;;;9.70;5.18;;;;;;;32.24;14.61;100319.34;5049419;27;101573;-76
2021/04/27 07:43:42;;;;;;;10.18;5.53;;;;;;;32.49;14.37;100313.53;5058031;27;96809;-74
2021/04/27 07:46:08;;;;;;;12.98;5.78;;;;;;;32.44;14.34;100318.69;5058576;27;97193;-76
2021/04/27 07:48:34;;;;;;;8.82;5.90;;;;;;;31.30;15.49;100315.63;5056538;27;102027;-74
2021/04/27 07:51:00;;;;;;;16.52;5.82;;;;;;;32.20;14.58;100318.06;5058219;27;100266;-75
2021/04/27 07:53:26;;;;;;;12.40;5.40;;;;;;;32.64;14.76;100313.47;5075314;27;96892;-76
2021/04/27 07:55:51;;;;;;;8.38;5.55;;;;;;;33.29;14.17;100311.44;5041778;27;97083;-76
2021/04/27 07:58:17;;;;;;;5.28;3.40;;;;;;;32.99;13.30;100319.84;5075426;27;97483;-76
2021/04/27 08:00:43;;;;;;;8.30;4.20;;;;;;;32.02;14.13;100309.50;5071825;27;98104;-75
2021/04/27 08:03:09;;;;;;;5.85;4.10;;;;;;;30.19;14.50;100322.53;5025529;27;97890;-75
2021/04/27 08:05:34;;;;;;;6.05;4.30;;;;;;;32.41;14.27;100321.81;5068882;27;97092;-74
2021/04/27 08:08:00;;;;;;;6.93;3.15;;;;;;;32.21;13.58;100322.44;5054059;27;100446;-74
2021/04/27 08:10:26;;;;;;;7.65;3.85;;;;;;;28.67;15.86;100321.66;5047847;27;101239;-75
2021/04/27 08:12:52;;;;;;;7.35;3.63;;;;;;;28.23;16.05;100321.13;5052382;27;97072;-76
2021/04/27 08:15:22;;;;;;;5.70;3.55;;;;;;;29.97;15.25;100316.09;5057107;27;96845;-75
2021/04/27 08:17:47;;;;;;;4.43;3.25;;;;;;;29.26;15.67;100320.56;5038549;27;98054;-77
2021/04/27 08:20:14;;;;;;;5.93;3.00;;;;;;;28.29;15.63;100320.44;5032812;27;100373;-77
2021/04/27 08:22:41;;;;;;;9.50;3.17;;;;;;;27.70;15.59;100322.31;5063881;27;96875;-77
2021/04/27 08:25:08;;;;;;;5.85;5.13;;;;;;;23.52;17.74;100326.88;5038464;27;96984;-75
2021/04/27 08:27:34;;;;;;;5.03;2.90;;;;;;;24.57;17.65;100337.97;5059605;27;99268;-75
2021/04/27 08:30:00;;;;;;;3.97;2.40;;;;;;;26.92;15.78;100325.91;5040825;27;97645;-75
2021/04/27 08:32:26;;;;;;;5.32;2.35;;;;;;;28.02;15.64;100328.84;5042833;27;96838;-75
2021/04/27 08:34:51;;;;;;;5.45;1.95;;;;;;;28.55;14.34;100327.59;5045382;27;96887;-75
2021/04/27 08:37:17;;;;;;;5.03;2.03;;;;;;;28.61;14.53;100324.19;5055625;27;101340;-76
2021/04/27 08:39:43;;;;;;;3.40;1.95;;;;;;;29.78;13.92;100317.34;5042679;27;101570;-76
2021/04/27 08:42:11;;;;;;;2.92;2.10;;;;;;;30.13;14.28;100318.66;5047055;27;97233;-76
2021/04/27 08:44:39;;;;;;;8.77;3.00;;;;;;;30.53;13.97;100305.03;5043732;27;97083;-75
2021/04/27 08:47:09;;;;;;;9.73;2.70;;;;;;;31.49;13.74;100311.53;5035212;27;101138;-75
2021/04/27 08:49:34;;;;;;;5.95;2.80;;;;;;;29.85;14.65;100312.94;5053484;27;100914;-75
2021/04/27 08:52:00;;;;;;;49.20;5.70;;;;;;;30.29;14.06;100319.63;5028247;27;96804;-75
2021/04/27 08:54:26;;;;;;;5.97;2.10;;;;;;;30.34;13.63;100319.91;5047226;27;96927;-76
2021/04/27 08:56:52;;;;;;;4.03;2.42;;;;;;;28.83;14.41;100315.41;5064700;27;99242;-75
2021/04/27 08:59:18;;;;;;;2.58;1.77;;;;;;;28.38;14.51;100307.81;5066310;27;97448;-75
2021/04/27 09:01:46;;;;;;;3.85;2.30;;;;;;;27.27;15.37;100313.34;5032630;27;96743;-75
2021/04/27 09:04:14;;;;;;;4.97;2.60;;;;;;;27.33;16.08;100304.63;5038834;27;96948;-75
2021/04/27 09:06:40;;;;;;;5.07;3.13;;;;;;;26.23;16.53;100315.88;5040123;27;97969;-76
2021/04/27 09:09:06;;;;;;;5.43;3.42;;;;;;;26.55;16.50;100291.97;5051349;27;97457;-77
2021/04/27 09:11:40;;;;;;;6.15;2.45;;;;;;;26.96;16.18;100291.41;5052390;27;97381;-76
2021/04/27 09:14:16;;;;;;;6.72;2.53;;;;;;;26.74;16.50;100299.03;5051519;27;97166;-75
2021/04/27 09:16:51;;;;;;;6.82;2.53;;;;;;;25.91;16.97;100287.66;5062906;27;101036;-74
2021/04/27 09:19:32;;;;;;;6.72;2.50;;;;;;;25.20;16.69;100286.47;5055618;27;102021;-74
2021/04/27 09:22:21;;;;;;;5.15;2.55;;;;;;;24.01;17.30;100298.41;5093676;27;97165;-74
2021/04/27 09:24:51;;;;;;;3.40;2.38;;;;;;;22.63;18.10;100297.09;5051241;27;96854;-74
2021/04/27 09:27:25;;;;;;;4.78;2.13;;;;;;;21.79;19.16;100296.06;5074154;27;101395;-74
2021/04/27 09:29:51;;;;;;;6.93;2.75;;;;;;;21.38;19.41;100300.22;5072823;27;97876;-74
2021/04/27 09:32:35;;;;;;;6.63;3.15;;;;;;;20.51;20.03;100299.81;5040064;27;96783;-74
2021/04/27 09:35:39;;;;;;;8.05;3.00;;;;;;;19.63;20.74;100292.03;5055194;27;98170;-74
2021/04/27 09:38:09;;;;;;;4.95;2.67;;;;;;;18.98;21.53;100293.09;5058576;27;98582;-75
2021/04/27 09:40:53;;;;;;;4.38;2.53;;;;;;;19.12;21.13;100284.16;5051757;27;101170;-75
2021/04/27 09:43:25;;;;;;;15.48;4.78;;;;;;;18.49;22.60;100262.72;5079975;27;97719;-75
2021/04/27 09:45:53;;;;;;;7.88;3.33;;;;;;;18.06;22.38;100297.50;5038210;27;96796;-76
2021/04/27 09:48:39;;;;;;;5.03;2.60;;;;;;;16.93;23.24;100286.06;5048940;27;99679;-75
2021/04/27 09:51:15;;;;;;;5.75;2.80;;;;;;;17.35;22.58;100287.00;5050474;27;100928;-76
2021/04/27 09:53:48;;;;;;;5.53;2.92;;;;;;;17.33;22.73;100273.81;5069719;27;96726;-75
2021/04/27 09:56:48;;;;;;;4.63;2.65;;;;;;;17.49;22.97;100279.03;5035162;27;97619;-75
2021/04/27 09:59:31;;;;;;;5.50;2.70;;;;;;;17.28;23.55;100273.28;5041175;27;97675;-75
2021/04/27 10:02:01;;;;;;;6.38;2.60;;;;;;;17.26;23.10;100272.50;5065220;27;98298;-76
2021/04/27 10:04:27;;;;;;;6.88;2.63;;;;;;;17.35;23.70;100265.75;5066585;27;97434;-75
2021/04/27 10:06:54;;;;;;;4.90;2.80;;;;;;;17.25;23.75;100268.16;5036517;27;97453;-75
2021/04/27 10:09:20;;;;;;;4.05;2.67;;;;;;;17.00;23.27;100257.38;5061159;27;98170;-76
2021/04/27 10:11:48;;;;;;;8.43;2.53;;;;;;;16.43;24.06;100268.69;5036399;27;101012;-75
2021/04/27 10:14:13;;;;;;;8.80;2.80;;;;;;;16.04;25.02;100264.78;5045692;27;98431;-75
2021/04/27 10:16:40;;;;;;;5.78;2.35;;;;;;;16.15;25.47;100257.09;5065544;27;97391;-75
2021/04/27 10:19:08;;;;;;;6.05;2.47;;;;;;;16.08;25.71;100255.72;5053296;27;98224;-75
2021/04/27 10:21:35;;;;;;;3.17;1.90;;;;;;;15.17;26.51;100254.59;5023398;27;101628;-75
2021/04/27 10:24:05;;;;;;;3.22;2.30;;;;;;;15.33;26.03;100251.97;5053616;27;97374;-75
2021/04/27 10:26:32;;;;;;;8.95;2.08;;;;;;;15.58;25.82;100243.53;5052749;27;97505;-74
2021/04/27 10:29:17;;;;;;;3.83;2.00;;;;;;;15.55;25.91;100239.28;5038785;27;101856;-73
2021/04/27 10:31:43;;;;;;;2.80;1.50;;;;;;;15.43;25.99;100236.47;5039299;27;100849;-73
2021/04/27 10:34:11;;;;;;;6.40;2.25;;;;;;;15.38;25.90;100231.41;5039522;27;97147;-72
2021/04/27 10:36:39;;;;;;;2.75;1.92;;;;;;;14.98;25.84;100224.81;5039519;27;96928;-74
2021/04/27 10:39:09;;;;;;;4.78;2.13;;;;;;;14.61;25.60;100227.63;5019228;27;100095;-75
2021/04/27 10:41:45;;;;;;;2.80;1.75;;;;;;;14.37;25.48;100226.19;5015659;27;101119;-75
2021/04/27 10:44:12;;;;;;;4.80;1.55;;;;;;;14.26;25.70;100232.03;5028650;27;96728;-75
2021/04/27 10:46:38;;;;;;;5.78;2.40;;;;;;;14.09;26.01;100224.97;5038092;27;96883;-75
2021/04/27 10:49:30;;;;;;;4.72;2.10;;;;;;;13.95;26.98;100223.00;5068941;27;99239;-75
2021/04/27 10:51:56;;;;;;;2.47;1.63;;;;;;;14.10;26.38;100216.09;5038708;27;101117;-75
2021/04/27 10:54:31;;;;;;;3.22;1.80;;;;;;;14.08;25.71;100212.72;5039420;27;97181;-75
2021/04/27 10:56:59;;;;;;;7.60;1.73;;;;;;;13.81;26.72;100207.84;5056182;27;96786;-75
2021/04/27 10:59:27;;;;;;;5.47;2.13;;;;;;;13.25;27.17;100197.38;5055585;27;101574;-75
2021/04/27 11:02:11;;;;;;;5.20;2.20;;;;;;;13.13;27.38;100207.56;5022276;27;102214;-75
2021/04/27 11:04:43;;;;;;;6.03;2.35;;;;;;;13.11;27.65;100204.13;5055598;27;97108;-76
2021/04/27 11:07:14;;;;;;;6.05;1.90;;;;;;;13.11;27.49;100187.47;5035703;27;97207;-76
2021/04/27 11:09:40;;;;;;;;;;;;;;;13.11;27.77;100195.38;5037868;27;99589;-76
2021/04/27 11:12:41;;;;;;;4.03;2.00;;;;;;;13.14;27.79;100182.06;5038050;27;100901;-76
2021/04/27 11:15:10;;;;;;;5.18;2.85;;;;;;;13.16;28.58;100179.38;5036019;27;96914;-76
2021/04/27 11:17:40;;;;;;;7.47;2.25;;;;;;;13.18;28.38;100178.38;5035293;27;96949;-76
2021/04/27 11:20:09;;;;;;;8.13;2.15;;;;;;;12.91;27.97;100183.13;5039057;27;101306;-76
2021/04/27 11:22:36;;;;;;;7.15;1.88;;;;;;;12.57;27.64;100170.63;5017926;27;101486;-76
2021/04/27 11:25:06;;;;;;;3.45;2.08;;;;;;;12.89;28.04;100171.81;5031393;27;96945;-75
2021/04/27 11:27:39;;;;;;;5.68;1.73;;;;;;;12.79;27.13;100187.16;5033171;27;97889;-75
2021/04/27 11:30:08;;;;;;;8.32;2.50;;;;;;;12.92;29.14;100174.31;5008741;27;101556;-76